<?xml version="1.0" encoding="utf-8"?>
<gpx xmlns:xsi="http://www.w3.org/2001/XMLSchema-instance" xmlns:xsd="http://www.w3.org/2001/XMLSchema" version="1.1" creator="Shapelink.com" xmlns="http://www.topografix.com/GPX/1/1" xmlns:gpxtpx="http://www.garmin.com/xmlschemas/TrackPointExtension/v1">
  <metadata>
    <name>Övrigt 1.73 km, 2020-07-16</name>
    <desc></desc>
    <author><name>Marian Moron</name></author> 
    <time>2020-07-16T20:58:38Z</time>
  </metadata>
  <trk>
    <name>Övrigt 1.73 km, 2020-07-16</name>
    <trkseg>
      <trkpt lat="51.22909404947" lon="4.461453526646">
        <ele>1.8</ele>
        <time>2020-07-16T20:58:38Z</time>
      </trkpt>
      <trkpt lat="51.229101090266" lon="4.46148001345">
        <ele>1.8</ele>
        <time>2020-07-16T20:58:40Z</time>
      </trkpt>
      <trkpt lat="51.229345255013" lon="4.461115568438">
        <ele>2.4</ele>
        <time>2020-07-16T20:59:12Z</time>
      </trkpt>
      <trkpt lat="51.229542648758" lon="4.460954719777">
        <ele>1.8</ele>
        <time>2020-07-16T20:59:34Z</time>
      </trkpt>
      <trkpt lat="51.229816401612" lon="4.461114143515">
        <ele>2.4</ele>
        <time>2020-07-16T21:00:05Z</time>
      </trkpt>
      <trkpt lat="51.229868704668" lon="4.461332743467">
        <ele>3</ele>
        <time>2020-07-16T21:00:19Z</time>
      </trkpt>
      <trkpt lat="51.229886558115" lon="4.461413461164">
        <ele>3</ele>
        <time>2020-07-16T21:00:26Z</time>
      </trkpt>
      <trkpt lat="51.229903489553" lon="4.461472134464">
        <ele>3</ele>
        <time>2020-07-16T21:00:29Z</time>
      </trkpt>
      <trkpt lat="51.229924947217" lon="4.461551175781">
        <ele>3</ele>
        <time>2020-07-16T21:00:34Z</time>
      </trkpt>
      <trkpt lat="51.229921762095" lon="4.461741361092">
        <ele>3.2</ele>
        <time>2020-07-16T21:01:11Z</time>
      </trkpt>
      <trkpt lat="51.230057381237" lon="4.462089880494">
        <ele>3</ele>
        <time>2020-07-16T21:01:42Z</time>
      </trkpt>
      <trkpt lat="51.230144636816" lon="4.46236933304">
        <ele>3.2</ele>
        <time>2020-07-16T21:02:03Z</time>
      </trkpt>
      <trkpt lat="51.230269359488" lon="4.462834947585">
        <ele>3.6</ele>
        <time>2020-07-16T21:02:37Z</time>
      </trkpt>
      <trkpt lat="51.230187300687" lon="4.462893704704">
        <ele>2.6</ele>
        <time>2020-07-16T21:02:59Z</time>
      </trkpt>
      <trkpt lat="51.230290481876" lon="4.462968219795">
        <ele>1</ele>
        <time>2020-07-16T21:03:18Z</time>
      </trkpt>
      <trkpt lat="51.230376815446" lon="4.463285642348">
        <ele>0.4</ele>
        <time>2020-07-16T21:04:15Z</time>
      </trkpt>
      <trkpt lat="51.230442948637" lon="4.463408856278">
        <ele>2.4</ele>
        <time>2020-07-16T21:04:49Z</time>
      </trkpt>
      <trkpt lat="51.230436578393" lon="4.463443976439">
        <ele>2.4</ele>
        <time>2020-07-16T21:04:51Z</time>
      </trkpt>
      <trkpt lat="51.230406068277" lon="4.463614296647">
        <ele>4</ele>
        <time>2020-07-16T21:05:08Z</time>
      </trkpt>
      <trkpt lat="51.230161316797" lon="4.464043869022">
        <ele>1.2</ele>
        <time>2020-07-16T21:06:15Z</time>
      </trkpt>
      <trkpt lat="51.23003952779" lon="4.464152582265">
        <ele>0</ele>
        <time>2020-07-16T21:06:45Z</time>
      </trkpt>
      <trkpt lat="51.229914888937" lon="4.464248135925">
        <ele>0</ele>
        <time>2020-07-16T21:07:02Z</time>
      </trkpt>
      <trkpt lat="51.229613056718" lon="4.464330613821">
        <ele>4.2</ele>
        <time>2020-07-16T21:07:50Z</time>
      </trkpt>
      <trkpt lat="51.22915942829" lon="4.464415187192">
        <ele>6.4</ele>
        <time>2020-07-16T21:08:33Z</time>
      </trkpt>
      <trkpt lat="51.228908977118" lon="4.464420719246">
        <ele>12</ele>
        <time>2020-07-16T21:09:04Z</time>
      </trkpt>
      <trkpt lat="51.228753241416" lon="4.464438991788">
        <ele>0</ele>
        <time>2020-07-16T21:09:33Z</time>
      </trkpt>
      <trkpt lat="51.228719043264" lon="4.464505627893">
        <ele>0</ele>
        <time>2020-07-16T21:09:38Z</time>
      </trkpt>
      <trkpt lat="51.228750894484" lon="4.46517978411">
        <ele>1.4</ele>
        <time>2020-07-16T21:10:25Z</time>
      </trkpt>
      <trkpt lat="51.228713092115" lon="4.46545973957">
        <ele>1.8</ele>
        <time>2020-07-16T21:10:44Z</time>
      </trkpt>
      <trkpt lat="51.2285886209" lon="4.46578244272">
        <ele>1</ele>
        <time>2020-07-16T21:11:53Z</time>
      </trkpt>
      <trkpt lat="51.22840254272" lon="4.465954942222">
        <ele>7.4</ele>
        <time>2020-07-16T21:12:21Z</time>
      </trkpt>
      <trkpt lat="51.228287040138" lon="4.46609005845">
        <ele>6.8</ele>
        <time>2020-07-16T21:12:46Z</time>
      </trkpt>
      <trkpt lat="51.228125772382" lon="4.466223749755">
        <ele>6.2</ele>
        <time>2020-07-16T21:13:08Z</time>
      </trkpt>
      <trkpt lat="51.228013203465" lon="4.466380658923">
        <ele>3</ele>
        <time>2020-07-16T21:13:29Z</time>
      </trkpt>
      <trkpt lat="51.227919410004" lon="4.466368924263">
        <ele>3.6</ele>
        <time>2020-07-16T21:13:42Z</time>
      </trkpt>
      <trkpt lat="51.227949836301" lon="4.465966090149">
        <ele>10</ele>
        <time>2020-07-16T21:14:24Z</time>
      </trkpt>
      <trkpt lat="51.228019741347" lon="4.465753860441">
        <ele>16.2</ele>
        <time>2020-07-16T21:14:57Z</time>
      </trkpt>
      <trkpt lat="51.227909184086" lon="4.465042237131">
        <ele>0.6</ele>
        <time>2020-07-16T21:15:39Z</time>
      </trkpt>
      <trkpt lat="51.227861155799" lon="4.464678965585">
        <ele>2</ele>
        <time>2020-07-16T21:16:04Z</time>
      </trkpt>
      <trkpt lat="51.227846319836" lon="4.464554242913">
        <ele>1.8</ele>
        <time>2020-07-16T21:16:13Z</time>
      </trkpt>
      <trkpt lat="51.227896359779" lon="4.4643005228">
        <ele>6.8</ele>
        <time>2020-07-16T21:16:29Z</time>
      </trkpt>
      <trkpt lat="51.227884625119" lon="4.464217122895">
        <ele>8</ele>
        <time>2020-07-16T21:16:33Z</time>
      </trkpt>
      <trkpt lat="51.227923014221" lon="4.463856533557">
        <ele>14.8</ele>
        <time>2020-07-16T21:16:53Z</time>
      </trkpt>
      <trkpt lat="51.227923014221" lon="4.463544894515">
        <ele>18.6</ele>
        <time>2020-07-16T21:17:17Z</time>
      </trkpt>
      <trkpt lat="51.227817318462" lon="4.463150023206">
        <ele>10.2</ele>
        <time>2020-07-16T21:17:44Z</time>
      </trkpt>
      <trkpt lat="51.227693266342" lon="4.462713745311">
        <ele>7.4</ele>
        <time>2020-07-16T21:18:11Z</time>
      </trkpt>
      <trkpt lat="51.227653955231" lon="4.462580892196">
        <ele>6</ele>
        <time>2020-07-16T21:18:22Z</time>
      </trkpt>
      <trkpt lat="51.227644986598" lon="4.462546861682">
        <ele>5.2</ele>
        <time>2020-07-16T21:18:24Z</time>
      </trkpt>
      <trkpt lat="51.227636520879" lon="4.462341505132">
        <ele>6.4</ele>
        <time>2020-07-16T21:18:36Z</time>
      </trkpt>
      <trkpt lat="51.227624534762" lon="4.462312839034">
        <ele>6</ele>
        <time>2020-07-16T21:18:38Z</time>
      </trkpt>
      <trkpt lat="51.227603077098" lon="4.462173448037">
        <ele>11</ele>
        <time>2020-07-16T21:18:46Z</time>
      </trkpt>
      <trkpt lat="51.227510289465" lon="4.462050988478">
        <ele>8.6</ele>
        <time>2020-07-16T21:18:56Z</time>
      </trkpt>
      <trkpt lat="51.22736570169" lon="4.461384375971">
        <ele>0</ele>
        <time>2020-07-16T21:19:36Z</time>
      </trkpt>
      <trkpt lat="51.227424877904" lon="4.460709046288">
        <ele>7.6</ele>
        <time>2020-07-16T21:20:18Z</time>
      </trkpt>
      <trkpt lat="51.227462512635" lon="4.460513161285">
        <ele>29.8</ele>
        <time>2020-07-16T21:22:05Z</time>
      </trkpt>
      <trkpt lat="51.227415825452" lon="4.460433281778">
        <ele>26.6</ele>
        <time>2020-07-16T21:22:11Z</time>
      </trkpt>
      <trkpt lat="51.227211139454" lon="4.459786953469">
        <ele>2.6</ele>
        <time>2020-07-16T21:22:59Z</time>
      </trkpt>
      <trkpt lat="51.227183143908" lon="4.459676060932">
        <ele>1.6</ele>
        <time>2020-07-16T21:23:10Z</time>
      </trkpt>
      <trkpt lat="51.227153304344" lon="4.459063344042">
        <ele>2.6</ele>
        <time>2020-07-16T21:24:11Z</time>
      </trkpt>
      <trkpt lat="51.227579188683" lon="4.458800068563">
        <ele>9</ele>
        <time>2020-07-16T21:24:59Z</time>
      </trkpt>
      <trkpt lat="51.227862999817" lon="4.458609464157">
        <ele>1.4</ele>
        <time>2020-07-16T21:25:36Z</time>
      </trkpt>
      <trkpt lat="51.228191486478" lon="4.458450291876">
        <ele>1.8</ele>
        <time>2020-07-16T21:26:16Z</time>
      </trkpt>
      <trkpt lat="51.228261810619" lon="4.458374100405">
        <ele>2</ele>
        <time>2020-07-16T21:26:27Z</time>
      </trkpt>
      <trkpt lat="51.228535647292" lon="4.458077297326">
        <ele>7.2</ele>
        <time>2020-07-16T21:26:59Z</time>
      </trkpt>
      <trkpt lat="51.228549645065" lon="4.457581759398">
        <ele>9.8</ele>
        <time>2020-07-16T21:27:41Z</time>
      </trkpt>
      <trkpt lat="51.228572611471" lon="4.457862972143">
        <ele>2.4</ele>
        <time>2020-07-16T21:28:08Z</time>
      </trkpt>
      <trkpt lat="51.228605217062" lon="4.458088948167">
        <ele>0</ele>
        <time>2020-07-16T21:28:19Z</time>
      </trkpt>
      <trkpt lat="51.228673613366" lon="4.458163044163">
        <ele>1.6</ele>
        <time>2020-07-16T21:28:32Z</time>
      </trkpt>
      <trkpt lat="51.22913009164" lon="4.458117865722">
        <ele>3.8</ele>
        <time>2020-07-16T21:29:22Z</time>
      </trkpt>
      <trkpt lat="51.229557400902" lon="4.457927848049">
        <ele>6.6</ele>
        <time>2020-07-16T21:30:24Z</time>
      </trkpt>
      <trkpt lat="51.229706095808" lon="4.457979229096">
        <ele>0</ele>
        <time>2020-07-16T21:31:05Z</time>
      </trkpt>
    </trkseg>
  </trk>
</gpx>